Time;durP1;ratioP1;P1;durP2;ratioP2;P2;SDS_P1;SDS_P2;PMS_P1;PMS_P2;Temp;Humidity;BMP_temperature;BMP_pressure;BME280_temperature;BME280_humidity;BME280_pressure;Samples;Min_cycle;Max_cycle;Signal;HPM_P1;HPM_P2
2023/06/05 00:01:02;;;;;;;3.10;1.67;;;21.60;30.20;;;;;;4936871;29;21107;-83
2023/06/05 00:03:29;;;;;;;2.30;2.00;;;21.60;30.30;;;;;;4921010;29;20557;-83
2023/06/05 00:05:56;;;;;;;2.60;1.60;;;21.50;30.40;;;;;;4901701;29;21176;-83
2023/06/05 00:08:23;;;;;;;1.97;1.87;;;21.50;30.40;;;;;;4941142;29;20850;-82
2023/06/05 00:10:51;;;;;;;2.33;1.80;;;21.50;31.30;;;;;;4934163;29;20478;-83
2023/06/05 00:13:18;;;;;;;2.90;1.80;;;21.40;30.70;;;;;;4932532;29;20462;-82
2023/06/05 00:15:47;;;;;;;2.90;1.57;;;21.40;30.40;;;;;;4937519;28;20473;-83
2023/06/05 00:18:14;;;;;;;2.73;2.00;;;21.00;31.00;;;;;;4909380;29;20544;-83
2023/06/05 00:20:41;;;;;;;1.97;1.60;;;21.10;31.40;;;;;;4936233;29;20839;-82
2023/06/05 00:23:11;;;;;;;1.80;1.70;;;21.00;30.20;;;;;;4922681;29;20465;-82
2023/06/05 00:25:38;;;;;;;5.10;1.70;;;21.00;30.10;;;;;;4925291;29;20455;-82
2023/06/05 00:28:06;;;;;;;3.57;1.30;;;20.90;30.80;;;;;;4922344;29;20454;-82
2023/06/05 00:30:33;;;;;;;1.57;1.40;;;21.00;31.00;;;;;;4924051;29;20455;-84
2023/06/05 00:33:00;;;;;;;3.33;1.57;;;21.00;31.10;;;;;;4920398;29;20481;-82
2023/06/05 00:35:26;;;;;;;2.70;1.90;;;21.00;32.00;;;;;;4920345;28;20465;-82
2023/06/05 00:37:54;;;;;;;3.70;1.80;;;21.00;31.90;;;;;;4932573;29;20465;-83
2023/06/05 00:40:21;;;;;;;2.87;1.60;;;20.90;32.40;;;;;;4907961;29;20458;-81
2023/06/05 00:42:47;;;;;;;1.90;1.57;;;20.90;32.60;;;;;;4919426;29;20468;-83
2023/06/05 00:45:16;;;;;;;2.57;1.47;;;20.90;33.10;;;;;;4934896;29;20476;-83
2023/06/05 00:47:43;;;;;;;3.50;1.73;;;20.80;32.70;;;;;;4932798;29;20467;-82
2023/06/05 00:50:12;;;;;;;2.10;1.90;;;20.70;32.20;;;;;;4926080;29;21069;-84
2023/06/05 00:52:40;;;;;;;1.33;1.23;;;20.70;32.50;;;;;;4924557;29;20467;-84
2023/06/05 00:55:08;;;;;;;4.00;1.33;;;20.60;32.00;;;;;;4908863;29;20469;-83
2023/06/05 00:57:38;;;;;;;1.80;1.40;;;20.60;32.30;;;;;;4934372;29;20525;-83
2023/06/05 01:00:08;;;;;;;1.50;1.30;;;20.60;32.40;;;;;;4924543;29;20446;-82
2023/06/05 01:02:38;;;;;;;5.50;1.50;;;20.50;32.50;;;;;;4924487;29;20878;-82
2023/06/05 01:05:05;;;;;;;1.73;1.43;;;20.50;33.40;;;;;;4933720;29;20465;-82
2023/06/05 01:07:34;;;;;;;2.13;1.30;;;20.40;32.90;;;;;;4905608;29;21112;-83
2023/06/05 01:10:01;;;;;;;1.63;1.53;;;20.40;33.70;;;;;;4937291;29;20535;-82
2023/06/05 01:12:34;;;;;;;2.70;1.67;;;20.30;33.30;;;;;;4927007;29;20443;-83
2023/06/05 01:15:05;;;;;;;2.83;1.77;;;20.20;32.80;;;;;;4926977;29;20471;-83
2023/06/05 01:17:33;;;;;;;2.00;1.70;;;19.90;32.80;;;;;;4940157;28;20982;-81
2023/06/05 01:20:08;;;;;;;2.27;1.60;;;20.00;33.30;;;;;;4922541;29;20522;-83
2023/06/05 01:22:37;;;;;;;1.40;1.30;;;20.00;32.80;;;;;;4931224;28;21037;-82
2023/06/05 01:25:08;;;;;;;3.50;1.70;;;20.00;33.00;;;;;;4917580;29;20458;-83
2023/06/05 01:27:42;;;;;;;1.70;1.50;;;20.00;33.60;;;;;;4937142;29;20475;-83
2023/06/05 01:30:16;;;;;;;2.80;1.67;;;20.00;34.10;;;;;;4932670;29;20452;-83
2023/06/05 01:32:53;;;;;;;2.20;1.50;;;20.00;33.60;;;;;;4923823;29;20457;-82
2023/06/05 01:35:27;;;;;;;2.93;1.50;;;19.80;32.80;;;;;;4904685;29;20453;-82
2023/06/05 01:37:56;;;;;;;2.80;2.07;;;19.50;32.90;;;;;;4925179;29;20484;-83
2023/06/05 01:40:25;;;;;;;1.30;1.20;;;19.60;33.40;;;;;;4936827;29;20590;-84
2023/06/05 01:42:55;;;;;;;1.83;1.30;;;19.70;33.50;;;;;;4924580;29;20459;-83
2023/06/05 01:45:22;;;;;;;2.50;1.70;;;19.70;33.80;;;;;;4931869;29;20467;-82
2023/06/05 01:47:50;;;;;;;2.40;1.90;;;19.70;33.90;;;;;;4920480;29;20490;-82
2023/06/05 01:50:18;;;;;;;1.77;1.37;;;19.60;33.90;;;;;;4920324;29;20450;-82
2023/06/05 01:52:46;;;;;;;1.67;1.47;;;19.60;33.80;;;;;;4922485;29;20558;-82
2023/06/05 01:55:16;;;;;;;1.57;1.47;;;19.60;33.40;;;;;;4935104;29;20482;-84
2023/06/05 01:57:45;;;;;;;1.50;1.40;;;19.60;33.40;;;;;;4920684;29;20493;-84
2023/06/05 02:00:15;;;;;;;2.07;1.47;;;19.50;33.70;;;;;;4923449;29;20453;-83
2023/06/05 02:02:43;;;;;;;1.80;1.70;;;19.50;33.90;;;;;;4932687;29;20828;-82
2023/06/05 02:05:10;;;;;;;1.93;1.80;;;19.50;34.10;;;;;;4916754;29;21336;-83
2023/06/05 02:07:39;;;;;;;1.50;1.40;;;19.50;34.40;;;;;;4945721;28;20477;-82
2023/06/05 02:10:09;;;;;;;1.70;1.60;;;19.40;34.80;;;;;;4932627;29;20446;-82
2023/06/05 02:12:37;;;;;;;1.87;1.50;;;19.30;35.00;;;;;;4917587;29;20464;-83
2023/06/05 02:15:06;;;;;;;1.67;1.57;;;19.30;34.40;;;;;;4923158;29;20961;-83
2023/06/05 02:17:34;;;;;;;2.67;1.60;;;19.30;34.30;;;;;;4923251;29;20477;-83
2023/06/05 02:20:01;;;;;;;2.10;1.90;;;19.20;34.90;;;;;;4932971;29;20454;-84
2023/06/05 02:22:28;;;;;;;2.27;1.50;;;19.20;34.30;;;;;;4930426;29;20462;-82
2023/06/05 02:24:56;;;;;;;2.20;1.43;;;19.10;34.50;;;;;;4930200;28;20552;-82
2023/06/05 02:27:24;;;;;;;2.27;1.87;;;19.10;34.90;;;;;;4923608;29;20508;-82
2023/06/05 02:29:51;;;;;;;2.90;1.60;;;19.00;35.90;;;;;;4906207;29;20894;-83
2023/06/05 02:32:19;;;;;;;1.70;1.43;;;19.00;35.80;;;;;;4925269;29;20477;-84
2023/06/05 02:34:47;;;;;;;2.90;1.80;;;19.00;35.50;;;;;;4917522;29;20542;-82
2023/06/05 02:37:15;;;;;;;2.70;1.80;;;18.90;35.70;;;;;;4907381;29;20489;-83
2023/06/05 02:39:42;;;;;;;2.17;1.77;;;18.80;35.80;;;;;;4931050;29;20458;-83
2023/06/05 02:42:09;;;;;;;2.23;1.80;;;18.80;36.20;;;;;;4918344;29;20466;-83
2023/06/05 02:44:36;;;;;;;2.33;2.00;;;18.80;36.80;;;;;;4933181;29;20500;-83
2023/06/05 02:47:03;;;;;;;2.83;1.90;;;18.80;37.70;;;;;;4907958;29;20538;-82
2023/06/05 02:49:32;;;;;;;5.13;2.20;;;18.70;39.10;;;;;;4920716;29;20489;-82
2023/06/05 02:51:59;;;;;;;2.53;1.70;;;18.70;39.40;;;;;;4915248;29;20461;-82
2023/06/05 02:54:28;;;;;;;3.03;2.00;;;18.70;39.50;;;;;;4907651;29;20517;-82
2023/06/05 02:56:56;;;;;;;2.80;2.20;;;18.60;39.70;;;;;;4907441;29;21070;-84
2023/06/05 02:59:24;;;;;;;3.03;2.00;;;18.60;39.40;;;;;;4930288;28;20469;-83
2023/06/05 03:01:52;;;;;;;3.13;2.00;;;18.60;39.30;;;;;;4922760;29;21114;-81
2023/06/05 03:04:21;;;;;;;2.93;1.63;;;18.60;38.90;;;;;;4902170;29;20450;-83
2023/06/05 03:06:50;;;;;;;3.10;2.10;;;18.60;38.30;;;;;;4926480;28;20466;-84
2023/06/05 03:09:17;;;;;;;1.53;1.43;;;18.50;37.80;;;;;;4921202;29;20465;-83
2023/06/05 03:11:44;;;;;;;2.33;2.10;;;18.40;37.80;;;;;;4923182;29;20959;-83
2023/06/05 03:14:11;;;;;;;1.93;1.70;;;18.30;38.00;;;;;;4922800;29;20470;-82
2023/06/05 03:16:41;;;;;;;2.43;2.00;;;18.30;38.60;;;;;;4906732;29;20845;-82
2023/06/05 03:19:09;;;;;;;3.73;2.27;;;18.30;39.50;;;;;;4916447;29;20454;-83
2023/06/05 03:21:37;;;;;;;6.70;2.50;;;18.30;40.50;;;;;;4923178;29;20504;-84
2023/06/05 03:24:10;;;;;;;2.37;1.93;;;18.20;41.00;;;;;;4906313;29;20459;-84
2023/06/05 03:26:37;;;;;;;3.23;2.20;;;18.20;41.70;;;;;;4931844;29;20506;-82
2023/06/05 03:29:05;;;;;;;4.37;2.40;;;18.20;42.30;;;;;;4917984;29;20459;-83
2023/06/05 03:31:32;;;;;;;2.63;2.13;;;18.20;42.40;;;;;;4918358;29;21030;-83
2023/06/05 03:33:59;;;;;;;2.43;2.20;;;18.20;42.60;;;;;;4920172;29;20463;-82
2023/06/05 03:36:28;;;;;;;5.33;2.60;;;18.10;42.80;;;;;;4906842;29;21010;-82
2023/06/05 03:38:55;;;;;;;3.10;2.50;;;18.10;43.20;;;;;;4923491;29;20466;-83
2023/06/05 03:41:25;;;;;;;3.93;2.47;;;18.10;43.80;;;;;;4908100;28;20464;-82
2023/06/05 03:43:53;;;;;;;2.80;2.00;;;18.10;44.20;;;;;;4903524;29;20463;-83
2023/06/05 03:46:21;;;;;;;4.80;2.27;;;18.10;44.40;;;;;;4922971;29;20552;-84
2023/06/05 03:48:53;;;;;;;4.10;2.73;;;18.10;44.70;;;;;;4909333;29;20454;-82
2023/06/05 03:51:20;;;;;;;3.63;2.20;;;18.10;45.00;;;;;;4905479;29;21016;-82
2023/06/05 03:53:54;;;;;;;3.00;2.10;;;18.10;45.20;;;;;;4930318;28;20541;-84
2023/06/05 03:56:27;;;;;;;2.53;2.30;;;18.00;45.30;;;;;;4920556;29;20477;-83
2023/06/05 03:58:55;;;;;;;3.37;2.50;;;18.00;45.60;;;;;;4923554;29;20514;-84
2023/06/05 04:01:22;;;;;;;3.10;2.33;;;17.90;45.90;;;;;;4945491;28;20447;-83
2023/06/05 04:03:50;;;;;;;2.50;2.10;;;17.90;46.00;;;;;;4915905;29;20447;-83
2023/06/05 04:06:17;;;;;;;2.90;2.40;;;17.80;46.40;;;;;;4915700;29;20598;-84
2023/06/05 04:08:44;;;;;;;7.40;2.70;;;17.80;46.60;;;;;;4923623;29;20439;-84
2023/06/05 04:11:11;;;;;;;3.10;2.10;;;17.80;46.70;;;;;;4913824;29;20466;-83
2023/06/05 04:13:42;;;;;;;2.70;2.50;;;17.80;47.10;;;;;;4911493;28;20509;-84
2023/06/05 04:16:10;;;;;;;4.47;2.67;;;17.80;46.50;;;;;;4918209;29;20479;-83
2023/06/05 04:18:37;;;;;;;2.40;2.13;;;17.80;46.20;;;;;;4897528;29;20473;-84
2023/06/05 04:21:04;;;;;;;4.57;2.87;;;17.80;46.80;;;;;;4924204;29;20443;-84
2023/06/05 04:23:31;;;;;;;5.30;3.90;;;17.80;46.50;;;;;;4899396;29;20530;-83
2023/06/05 04:25:58;;;;;;;3.93;3.53;;;17.80;46.70;;;;;;4934038;28;20534;-83
2023/06/05 04:28:26;;;;;;;4.97;3.73;;;17.80;46.40;;;;;;4913658;29;20461;-83
2023/06/05 04:30:55;;;;;;;4.97;3.20;;;17.90;46.40;;;;;;4917040;29;20450;-83
2023/06/05 04:33:23;;;;;;;4.53;4.13;;;17.90;46.60;;;;;;4919473;29;21098;-83
2023/06/05 04:35:50;;;;;;;3.93;3.53;;;17.90;46.80;;;;;;4902285;29;21083;-84
2023/06/05 04:38:20;;;;;;;3.67;3.27;;;17.80;47.00;;;;;;4933438;29;20584;-83
2023/06/05 04:40:48;;;;;;;3.00;2.40;;;17.90;47.10;;;;;;4923427;29;20453;-83
2023/06/05 04:43:15;;;;;;;3.20;2.50;;;17.90;47.10;;;;;;4906726;29;20461;-83
2023/06/05 04:45:42;;;;;;;4.27;2.60;;;17.90;47.20;;;;;;4934629;28;20453;-85
2023/06/05 04:48:12;;;;;;;2.20;2.00;;;17.90;47.30;;;;;;4920691;29;20530;-83
2023/06/05 04:50:40;;;;;;;2.30;2.10;;;17.90;47.30;;;;;;4932482;29;20905;-84
2023/06/05 04:53:11;;;;;;;3.10;2.27;;;18.00;47.60;;;;;;4919899;29;20463;-85
2023/06/05 04:55:39;;;;;;;5.00;2.67;;;18.00;47.80;;;;;;4907266;29;20538;-83
2023/06/05 04:58:06;;;;;;;3.43;2.80;;;17.90;48.40;;;;;;4925326;29;20847;-84
2023/06/05 05:00:35;;;;;;;3.70;2.57;;;17.90;48.20;;;;;;4920562;29;20458;-85
2023/06/05 05:03:04;;;;;;;3.70;2.60;;;18.00;48.00;;;;;;4924306;29;20501;-83
2023/06/05 05:05:34;;;;;;;4.00;2.40;;;18.00;48.20;;;;;;4913131;28;21541;-84
2023/06/05 05:08:02;;;;;;;2.53;2.33;;;18.00;48.40;;;;;;4925419;29;20450;-83
2023/06/05 05:10:30;;;;;;;3.60;2.60;;;18.00;48.10;;;;;;4918243;29;20843;-83
2023/06/05 05:13:00;;;;;;;3.20;2.67;;;18.00;48.20;;;;;;4918251;29;20454;-82
2023/06/05 05:15:28;;;;;;;4.60;2.83;;;18.10;48.50;;;;;;4916901;29;20538;-84
2023/06/05 05:17:56;;;;;;;4.23;2.63;;;18.10;48.40;;;;;;4921496;29;20479;-83
2023/06/05 05:20:24;;;;;;;3.50;2.63;;;18.20;48.00;;;;;;4909857;29;20806;-83
2023/06/05 05:22:52;;;;;;;4.13;2.37;;;18.20;48.20;;;;;;4918180;29;20884;-83
2023/06/05 05:25:19;;;;;;;2.90;2.40;;;18.20;47.80;;;;;;4931586;29;20461;-83
2023/06/05 05:27:47;;;;;;;3.17;2.27;;;18.30;47.80;;;;;;4924280;29;20479;-83
2023/06/05 05:30:15;;;;;;;3.20;2.60;;;18.40;47.80;;;;;;4924506;29;20465;-83
2023/06/05 05:32:43;;;;;;;2.60;2.40;;;18.50;47.80;;;;;;4914777;29;21083;-84
2023/06/05 05:35:12;;;;;;;2.90;2.50;;;18.60;47.50;;;;;;4909361;29;20710;-84
2023/06/05 05:37:39;;;;;;;2.47;2.27;;;18.60;47.20;;;;;;4917320;29;20518;-83
2023/06/05 05:40:08;;;;;;;4.47;2.60;;;18.70;47.40;;;;;;4921702;29;20471;-82
2023/06/05 05:42:36;;;;;;;2.60;2.33;;;18.80;47.20;;;;;;4907230;29;20446;-84
2023/06/05 05:45:03;;;;;;;4.80;2.80;;;18.90;47.30;;;;;;4908783;29;20545;-83
2023/06/05 05:47:30;;;;;;;2.73;2.50;;;18.90;46.00;;;;;;4913525;29;20569;-83
2023/06/05 05:49:57;;;;;;;2.80;2.00;;;19.00;46.60;;;;;;4930993;29;20550;-83
2023/06/05 05:52:24;;;;;;;3.00;2.03;;;19.10;46.50;;;;;;4914777;29;20527;-84
2023/06/05 05:54:51;;;;;;;4.33;2.40;;;19.20;46.10;;;;;;4927773;29;20946;-84
2023/06/05 05:57:20;;;;;;;2.87;2.27;;;19.30;45.10;;;;;;4923003;29;20497;-83
2023/06/05 05:59:47;;;;;;;2.60;2.30;;;19.50;45.80;;;;;;4915424;29;20458;-84
2023/06/05 06:02:14;;;;;;;11.03;2.30;;;19.80;45.50;;;;;;4932650;29;20537;-84
2023/06/05 06:04:43;;;;;;;6.63;2.00;;;19.90;44.10;;;;;;4922797;29;20477;-84
2023/06/05 06:07:10;;;;;;;16.80;2.70;;;20.10;44.50;;;;;;4933465;29;20485;-83
2023/06/05 06:09:38;;;;;;;19.27;2.53;;;20.30;43.70;;;;;;4939669;29;20454;-84
2023/06/05 06:12:07;;;;;;;13.80;2.70;;;20.10;41.60;;;;;;4900799;29;21220;-83
2023/06/05 06:14:35;;;;;;;8.40;2.27;;;20.20;41.30;;;;;;4899931;29;20462;-84
2023/06/05 06:17:05;;;;;;;15.50;3.00;;;20.40;39.80;;;;;;4933740;28;20474;-84
2023/06/05 06:19:32;;;;;;;7.03;2.03;;;20.30;39.40;;;;;;4914278;29;20634;-84
2023/06/05 06:22:00;;;;;;;10.90;2.10;;;20.50;40.30;;;;;;4934322;29;20545;-85
2023/06/05 06:24:27;;;;;;;5.00;1.97;;;20.80;41.20;;;;;;4931416;29;21622;-82
2023/06/05 06:26:54;;;;;;;14.50;1.90;;;20.80;38.20;;;;;;4940150;28;20884;-84
2023/06/05 06:29:23;;;;;;;6.60;1.73;;;21.00;40.00;;;;;;4931964;29;20435;-85
2023/06/05 06:31:52;;;;;;;3.87;1.83;;;21.00;38.90;;;;;;4916930;29;20489;-84
2023/06/05 06:34:19;;;;;;;3.90;1.90;;;20.90;39.00;;;;;;4923064;29;20542;-83
2023/06/05 06:36:46;;;;;;;5.13;2.10;;;20.90;38.70;;;;;;4914354;29;20606;-84
2023/06/05 06:39:13;;;;;;;3.90;1.90;;;21.00;39.90;;;;;;4924359;29;20490;-83
2023/06/05 06:41:40;;;;;;;13.73;2.70;;;21.40;40.60;;;;;;4903469;29;20862;-84
2023/06/05 06:44:07;;;;;;;9.30;2.20;;;21.70;39.10;;;;;;4936891;29;20831;-85
2023/06/05 06:46:34;;;;;;;10.73;2.63;;;21.80;38.80;;;;;;4914795;29;20482;-85
2023/06/05 06:49:03;;;;;;;3.73;2.03;;;21.60;37.60;;;;;;4917385;29;20466;-84
2023/06/05 06:51:30;;;;;;;7.13;2.20;;;21.80;39.10;;;;;;4931409;29;21194;-84
2023/06/05 06:53:57;;;;;;;5.37;2.07;;;22.20;39.20;;;;;;4920070;29;20455;-84
2023/06/05 06:56:25;;;;;;;4.50;1.63;;;22.50;38.90;;;;;;4917141;29;20474;-84
2023/06/05 06:58:55;;;;;;;2.63;1.93;;;22.60;38.20;;;;;;4923435;29;20463;-84
2023/06/05 07:01:23;;;;;;;3.60;1.87;;;22.70;34.90;;;;;;4933316;29;20514;-86
2023/06/05 07:03:50;;;;;;;8.03;2.00;;;22.80;36.30;;;;;;4933175;29;20799;-85
2023/06/05 07:06:21;;;;;;;6.60;2.40;;;23.00;35.60;;;;;;4931803;28;20466;-85
2023/06/05 07:08:48;;;;;;;3.40;1.60;;;23.20;37.80;;;;;;4929574;29;20501;-85
2023/06/05 07:11:15;;;;;;;5.80;2.77;;;23.10;33.30;;;;;;4916846;29;20446;-84
2023/06/05 07:13:41;;;;;;;4.97;1.53;;;22.80;32.40;;;;;;4931401;29;20454;-84
2023/06/05 07:16:08;;;;;;;9.03;2.10;;;22.70;33.70;;;;;;4916062;29;20478;-85
2023/06/05 07:18:36;;;;;;;3.50;2.10;;;22.70;31.50;;;;;;4913076;29;21152;-84
2023/06/05 07:21:03;;;;;;;3.10;1.83;;;22.90;32.60;;;;;;4923414;29;20559;-84
2023/06/05 07:23:32;;;;;;;5.23;1.70;;;23.10;32.90;;;;;;4920519;29;20465;-84
2023/06/05 07:25:59;;;;;;;3.07;1.80;;;23.30;31.00;;;;;;4921802;29;20470;-85
2023/06/05 07:28:26;;;;;;;2.33;1.40;;;23.40;31.00;;;;;;4918746;29;20470;-83
2023/06/05 07:30:53;;;;;;;2.10;1.80;;;23.60;32.00;;;;;;4918532;29;20486;-84
2023/06/05 07:33:20;;;;;;;2.53;1.97;;;23.80;31.60;;;;;;4913720;29;20466;-84
2023/06/05 07:35:48;;;;;;;2.30;1.60;;;23.80;31.40;;;;;;4930065;29;20544;-84
2023/06/05 07:38:15;;;;;;;1.50;1.40;;;23.90;30.90;;;;;;4929633;29;21209;-84
2023/06/05 07:40:43;;;;;;;2.93;2.10;;;23.70;30.00;;;;;;4930633;28;20509;-85
2023/06/05 07:43:14;;;;;;;3.47;1.70;;;23.90;31.90;;;;;;4916638;29;20804;-86
2023/06/05 07:45:41;;;;;;;1.90;1.70;;;24.10;30.60;;;;;;4922894;28;20996;-85
2023/06/05 07:48:08;;;;;;;1.93;1.73;;;24.30;31.30;;;;;;4924222;29;20457;-85
2023/06/05 07:50:35;;;;;;;2.23;2.03;;;24.50;30.40;;;;;;4913291;29;20817;-85
2023/06/05 07:53:02;;;;;;;1.77;1.67;;;24.60;30.00;;;;;;4930721;29;21225;-84
2023/06/05 07:55:29;;;;;;;1.77;1.50;;;24.60;30.10;;;;;;4920958;29;20536;-84
2023/06/05 07:57:59;;;;;;;2.10;1.90;;;24.70;30.90;;;;;;4908194;29;20455;-85
2023/06/05 08:00:27;;;;;;;2.83;1.73;;;24.90;31.60;;;;;;4922530;29;20487;-85
2023/06/05 08:02:54;;;;;;;3.40;1.60;;;25.10;29.80;;;;;;4916034;29;20961;-84
2023/06/05 08:05:21;;;;;;;3.43;1.80;;;25.00;29.80;;;;;;4924270;29;20449;-83
2023/06/05 08:07:48;;;;;;;2.17;1.77;;;24.90;30.00;;;;;;4933359;29;20839;-85
2023/06/05 08:10:15;;;;;;;6.30;2.00;;;24.80;29.90;;;;;;4908788;29;21027;-82
2023/06/05 08:12:42;;;;;;;2.53;1.60;;;25.10;30.00;;;;;;4927555;29;20455;-85
2023/06/05 08:15:10;;;;;;;4.77;2.00;;;25.20;29.30;;;;;;4932940;29;21339;-84
2023/06/05 08:17:37;;;;;;;4.00;2.37;;;25.30;29.70;;;;;;4927116;28;20471;-85
2023/06/05 08:20:07;;;;;;;3.30;2.77;;;25.20;29.90;;;;;;4926893;29;20489;-85
2023/06/05 08:22:34;;;;;;;3.37;2.60;;;25.30;30.80;;;;;;4934238;29;20462;-85
2023/06/05 08:25:01;;;;;;;3.70;2.73;;;25.50;29.80;;;;;;4919291;29;20465;-85
2023/06/05 08:27:28;;;;;;;4.60;2.80;;;25.50;29.80;;;;;;4915385;29;20530;-84
2023/06/05 08:29:55;;;;;;;3.33;2.40;;;25.60;29.50;;;;;;4936521;29;20475;-85
2023/06/05 08:32:23;;;;;;;1.80;1.70;;;25.70;29.00;;;;;;4917957;29;20450;-85
2023/06/05 08:34:50;;;;;;;2.10;1.90;;;26.10;30.90;;;;;;4902123;29;20454;-84
2023/06/05 08:37:17;;;;;;;3.03;2.00;;;26.50;31.30;;;;;;4916481;29;20866;-83
2023/06/05 08:39:46;;;;;;;2.80;2.20;;;26.90;30.20;;;;;;4924503;29;20477;-85
2023/06/05 08:42:18;;;;;;;2.00;1.80;;;26.90;28.80;;;;;;4909216;29;20446;-85
2023/06/05 08:44:47;;;;;;;5.13;2.20;;;26.90;28.10;;;;;;4910021;29;20481;-86
2023/06/05 08:47:15;;;;;;;9.20;2.10;;;27.10;28.70;;;;;;4912865;29;21191;-85
2023/06/05 08:49:44;;;;;;;4.73;2.00;;;27.10;27.70;;;;;;4932955;29;20459;-85
2023/06/05 08:52:14;;;;;;;2.83;1.73;;;26.90;28.30;;;;;;4911303;29;20797;-85
2023/06/05 08:54:41;;;;;;;2.60;1.80;;;27.10;28.60;;;;;;4933769;28;20459;-85
2023/06/05 08:57:10;;;;;;;5.67;2.07;;;27.30;28.60;;;;;;4905365;29;20563;-85
2023/06/05 08:59:38;;;;;;;3.33;2.13;;;27.10;28.20;;;;;;4918748;29;20589;-85
2023/06/05 09:02:05;;;;;;;2.90;2.33;;;27.00;27.60;;;;;;4926176;29;20564;-85
2023/06/05 09:04:32;;;;;;;1.70;1.60;;;26.90;27.80;;;;;;4932321;29;20832;-84
2023/06/05 09:07:00;;;;;;;2.60;2.13;;;27.20;28.70;;;;;;4938034;29;20554;-84
2023/06/05 09:09:28;;;;;;;2.53;2.03;;;27.20;28.00;;;;;;4901964;29;20467;-82
2023/06/05 09:12:05;;;;;;;2.07;1.80;;;27.10;26.80;;;;;;4934471;29;20453;-84
2023/06/05 09:14:33;;;;;;;3.03;2.10;;;27.50;27.40;;;;;;4918204;29;20549;-85
2023/06/05 09:17:01;;;;;;;2.73;1.67;;;27.60;26.40;;;;;;4920732;29;20467;-85
2023/06/05 09:19:37;;;;;;;4.80;2.17;;;27.80;26.70;;;;;;4920530;29;20474;-85
2023/06/05 09:22:07;;;;;;;2.60;1.83;;;27.90;25.60;;;;;;4936140;29;20461;-85
2023/06/05 09:24:34;;;;;;;6.60;1.90;;;27.90;27.50;;;;;;4903255;29;20541;-84
2023/06/05 09:27:04;;;;;;;2.83;1.83;;;28.20;25.40;;;;;;4911296;29;20539;-84
2023/06/05 09:29:33;;;;;;;3.83;2.00;;;28.70;25.20;;;;;;4904871;29;20451;-84
2023/06/05 09:32:02;;;;;;;2.30;2.10;;;28.60;24.00;;;;;;4936930;29;20462;-85
2023/06/05 09:34:30;;;;;;;4.87;1.70;;;28.70;25.70;;;;;;4909487;29;20466;-85
2023/06/05 09:36:58;;;;;;;3.63;1.73;;;28.70;24.40;;;;;;4917422;29;20489;-85
2023/06/05 09:39:27;;;;;;;2.27;2.07;;;29.00;24.30;;;;;;4916275;29;20467;-85
2023/06/05 09:41:55;;;;;;;10.83;1.80;;;29.20;24.20;;;;;;4919398;29;20446;-86
2023/06/05 09:44:23;;;;;;;3.17;1.80;;;29.30;23.40;;;;;;4910115;29;20525;-86
2023/06/05 09:46:55;;;;;;;2.30;2.10;;;29.40;23.40;;;;;;4931835;28;21699;-85
2023/06/05 09:49:25;;;;;;;2.73;1.73;;;29.70;23.60;;;;;;4909313;29;20453;-84
2023/06/05 09:51:52;;;;;;;2.70;1.90;;;30.00;23.40;;;;;;4920634;29;20450;-85
2023/06/05 09:54:22;;;;;;;1.80;1.70;;;30.10;23.00;;;;;;4934945;29;20963;-85
2023/06/05 09:56:50;;;;;;;1.93;1.70;;;29.90;23.00;;;;;;4939658;28;20481;-85
2023/06/05 09:59:22;;;;;;;2.67;1.80;;;30.10;22.30;;;;;;4931860;29;20502;-84
2023/06/05 10:01:52;;;;;;;4.17;2.10;;;30.30;21.90;;;;;;4933411;28;21197;-84
2023/06/05 10:04:22;;;;;;;2.40;2.20;;;30.40;22.00;;;;;;4914396;29;20973;-86
2023/06/05 10:06:51;;;;;;;1.90;1.80;;;30.50;20.80;;;;;;4920907;29;20480;-85
2023/06/05 10:09:19;;;;;;;3.43;1.90;;;30.70;21.90;;;;;;4947406;28;20451;-85
2023/06/05 10:11:51;;;;;;;4.57;2.00;;;31.00;22.00;;;;;;4902387;29;21138;-84
2023/06/05 10:14:19;;;;;;;2.73;1.97;;;30.90;22.00;;;;;;4934923;29;20545;-85
2023/06/05 10:16:50;;;;;;;3.83;2.10;;;31.00;21.90;;;;;;4945298;28;20853;-86
2023/06/05 10:19:19;;;;;;;9.50;1.70;;;30.70;21.90;;;;;;4934763;29;20482;-86
2023/06/05 10:21:48;;;;;;;3.70;2.30;;;30.70;22.30;;;;;;4919490;29;20532;-83
2023/06/05 10:24:19;;;;;;;3.53;2.30;;;30.40;21.50;;;;;;4931260;29;20459;-85
2023/06/05 10:27:17;;;;;;;2.33;1.70;;;30.60;21.70;;;;;;4921878;29;20466;-85
2023/06/05 10:30:19;;;;;;;2.77;2.20;;;30.70;20.70;;;;;;4902923;29;20829;-85
2023/06/05 10:33:01;;;;;;;1.80;1.70;;;31.00;21.40;;;;;;4893995;29;20479;-85
2023/06/05 10:35:42;;;;;;;6.87;2.50;;;30.90;20.50;;;;;;4925047;28;21023;-84
2023/06/05 10:38:18;;;;;;;4.13;2.10;;;30.80;21.00;;;;;;4936417;29;20442;-85
2023/06/05 10:40:49;;;;;;;1.90;1.80;;;31.00;22.20;;;;;;4923925;29;20992;-86
2023/06/05 10:43:28;;;;;;;2.60;1.90;;;31.20;22.40;;;;;;4925059;29;20460;-84
2023/06/05 10:45:56;;;;;;;2.10;1.90;;;31.60;20.90;;;;;;4907513;29;20465;-86
2023/06/05 10:48:29;;;;;;;1.77;1.67;;;31.30;19.80;;;;;;4935828;29;20442;-84
2023/06/05 10:51:32;;;;;;;4.20;2.10;;;31.10;20.90;;;;;;4904741;29;20940;-84
2023/06/05 10:54:00;;;;;;;4.10;1.80;;;31.30;20.50;;;;;;4924795;29;20463;-85
2023/06/05 10:56:59;;;;;;;2.60;2.10;;;31.50;20.00;;;;;;4923607;29;20511;-85
2023/06/05 10:59:29;;;;;;;2.53;2.13;;;31.80;20.50;;;;;;4929571;28;20471;-85
2023/06/05 11:02:24;;;;;;;3.07;2.17;;;31.70;19.90;;;;;;4915636;29;20513;-85
2023/06/05 11:05:06;;;;;;;2.43;2.00;;;31.70;20.60;;;;;;4885164;29;22178;-85
2023/06/05 11:07:34;;;;;;;3.03;1.70;;;32.20;19.50;;;;;;4922047;29;20470;-84
2023/06/05 11:10:06;;;;;;;1.90;1.80;;;32.20;19.20;;;;;;4931310;29;20550;-85
2023/06/05 11:13:02;;;;;;;2.00;1.70;;;31.80;20.30;;;;;;4938483;28;20465;-85
2023/06/05 11:15:43;;;;;;;2.00;1.80;;;31.80;20.60;;;;;;4915123;29;20457;-85
2023/06/05 11:18:36;;;;;;;2.80;1.80;;;31.70;19.60;;;;;;4931145;28;20454;-86
2023/06/05 11:21:03;;;;;;;1.83;1.73;;;32.00;19.40;;;;;;4941334;29;20509;-85
2023/06/05 11:23:30;;;;;;;2.63;1.90;;;32.00;19.20;;;;;;4928497;29;20495;-85
2023/06/05 11:26:18;;;;;;;4.33;1.70;;;32.00;18.90;;;;;;4912095;29;20482;-85
2023/06/05 11:28:47;;;;;;;1.70;1.57;;;32.30;19.30;;;;;;4917807;29;20462;-85
2023/06/05 11:31:28;;;;;;;2.80;2.17;;;32.10;19.50;;;;;;4922105;29;20439;-85
2023/06/05 11:33:55;;;;;;;2.10;1.90;;;32.00;19.50;;;;;;4906212;29;20548;-85
2023/06/05 11:36:24;;;;;;;2.10;1.90;;;32.00;19.90;;;;;;4938667;28;20475;-85
2023/06/05 11:38:55;;;;;;;2.73;2.20;;;32.00;19.10;;;;;;4914943;28;20459;-85
2023/06/05 11:41:24;;;;;;;3.20;1.80;;;32.30;20.20;;;;;;4926603;29;20477;-85
2023/06/05 11:43:53;;;;;;;2.87;1.90;;;32.20;19.00;;;;;;4913220;29;20450;-85
2023/06/05 11:46:20;;;;;;;2.40;2.00;;;32.20;19.70;;;;;;4936843;28;21363;-86
2023/06/05 11:48:47;;;;;;;6.27;2.23;;;32.00;19.60;;;;;;4926527;28;20889;-85
2023/06/05 11:51:15;;;;;;;5.20;1.93;;;32.20;19.60;;;;;;4926264;29;20470;-85
2023/06/05 11:53:48;;;;;;;5.43;2.20;;;32.60;18.70;;;;;;4950421;28;20514;-85
2023/06/05 11:56:16;;;;;;;5.23;2.07;;;32.10;18.30;;;;;;4924090;29;20528;-85
2023/06/05 11:58:44;;;;;;;4.50;2.10;;;31.70;20.50;;;;;;4928320;29;20458;-85
2023/06/05 12:01:17;;;;;;;7.90;2.50;;;31.60;18.80;;;;;;4930308;29;20553;-85
2023/06/05 12:03:45;;;;;;;2.70;1.80;;;31.80;19.20;;;;;;4939146;29;20915;-85
2023/06/05 12:06:14;;;;;;;2.63;1.80;;;31.60;19.40;;;;;;4926342;29;20469;-85
2023/06/05 12:08:42;;;;;;;2.30;2.10;;;31.70;19.30;;;;;;4926172;29;20527;-85
2023/06/05 12:11:25;;;;;;;5.67;2.37;;;31.80;19.10;;;;;;4924980;29;20445;-85
2023/06/05 12:13:53;;;;;;;3.00;1.90;;;32.00;19.20;;;;;;4919844;29;20453;-85
2023/06/05 12:16:31;;;;;;;2.97;2.10;;;32.30;19.00;;;;;;4928573;29;20561;-86
2023/06/05 12:18:58;;;;;;;2.40;2.13;;;32.60;20.30;;;;;;4904415;29;20549;-85
2023/06/05 12:21:26;;;;;;;2.10;1.90;;;32.80;18.70;;;;;;4919232;29;20520;-85
2023/06/05 12:24:02;;;;;;;2.70;1.80;;;32.70;18.60;;;;;;4926664;29;20525;-85
2023/06/05 12:26:30;;;;;;;3.93;2.20;;;32.60;19.10;;;;;;4929241;29;20470;-87
2023/06/05 12:29:05;;;;;;;5.10;1.73;;;32.50;18.40;;;;;;4937272;29;20967;-85
2023/06/05 12:31:39;;;;;;;3.50;2.00;;;32.30;17.80;;;;;;4913149;29;20457;-85
2023/06/05 12:34:06;;;;;;;3.07;2.60;;;32.00;18.50;;;;;;4937658;29;20460;-86
2023/06/05 12:36:40;;;;;;;3.80;2.43;;;31.70;18.90;;;;;;4938266;29;20486;-85
2023/06/05 12:39:07;;;;;;;2.57;2.37;;;32.10;19.10;;;;;;4931305;29;20462;-86
2023/06/05 12:41:34;;;;;;;3.53;2.27;;;32.50;19.40;;;;;;4913263;29;20481;-85
2023/06/05 12:44:04;;;;;;;2.10;1.90;;;33.00;19.90;;;;;;4939537;29;20557;-85
2023/06/05 12:46:31;;;;;;;1.87;1.77;;;33.40;19.10;;;;;;4928618;29;20473;-85
2023/06/05 12:48:59;;;;;;;2.43;2.20;;;33.30;19.20;;;;;;4921120;29;20806;-86
2023/06/05 12:51:26;;;;;;;4.20;2.40;;;33.00;18.90;;;;;;4919917;29;20459;-86
2023/06/05 12:53:54;;;;;;;2.33;1.80;;;32.90;18.40;;;;;;4920937;29;20455;-86
2023/06/05 12:56:24;;;;;;;3.00;1.93;;;33.00;20.30;;;;;;4926186;29;20551;-85